sensor_id;sensor_type;location;lat;lon;timestamp;pressure;altitude;pressure_sealevel;temperature;humidity
44349;BME280;30068;50.986;4.564;2023-05-01T09:44:52;101570.94;;;22.18;nan
44349;BME280;30068;50.986;4.564;2023-05-01T09:47:20;101566.25;;;22.27;nan
44349;BME280;30068;50.986;4.564;2023-05-01T09:49:48;101567.72;;;22.37;nan
44349;BME280;30068;50.986;4.564;2023-05-01T09:52:14;101573.72;;;22.48;nan
44349;BME280;30068;50.986;4.564;2023-05-01T09:54:39;101575.94;;;22.59;nan
44349;BME280;30068;50.986;4.564;2023-05-01T09:57:05;101573.72;;;22.48;nan
44349;BME280;30068;50.986;4.564;2023-05-01T09:59:30;101572.59;;;22.57;nan
44349;BME280;30068;50.986;4.564;2023-05-01T10:01:58;101582.91;;;22.61;nan
44349;BME280;30068;50.986;4.564;2023-05-01T10:04:33;101581.31;;;22.67;nan
44349;BME280;30068;50.986;4.564;2023-05-01T10:07:11;101580.69;;;22.65;nan
44349;BME280;30068;50.986;4.564;2023-05-01T10:09:39;101587.88;;;22.72;nan
44349;BME280;30068;50.986;4.564;2023-05-01T10:12:06;101588.03;;;22.79;nan
44349;BME280;30068;50.986;4.564;2023-05-01T10:14:31;101594.78;;;22.83;nan
44349;BME280;30068;50.986;4.564;2023-05-01T10:17:06;101592.25;;;22.81;nan
44349;BME280;30068;50.986;4.564;2023-05-01T10:19:41;101592.63;;;22.78;nan
44349;BME280;30068;50.986;4.564;2023-05-01T10:22:06;101593.56;;;22.86;nan
44349;BME280;30068;50.986;4.564;2023-05-01T10:24:31;101597.31;;;22.84;nan
44349;BME280;30068;50.986;4.564;2023-05-01T10:26:57;101600.13;;;22.91;nan
44349;BME280;30068;50.986;4.564;2023-05-01T10:29:23;101596.66;;;22.97;nan
44349;BME280;30068;50.986;4.564;2023-05-01T10:31:51;101603.22;;;23.03;nan
44349;BME280;30068;50.986;4.564;2023-05-01T10:34:17;101604.16;;;22.95;nan
44349;BME280;30068;50.986;4.564;2023-05-01T10:36:44;101592.25;;;22.81;nan
44349;BME280;30068;50.986;4.564;2023-05-01T10:44:31;101601.91;;;22.84;nan
44349;BME280;30068;50.986;4.564;2023-05-01T10:46:56;101609.59;;;22.80;nan
44349;BME280;30068;50.986;4.564;2023-05-01T10:49:22;101600.13;;;22.76;nan
44349;BME280;30068;50.986;4.564;2023-05-01T10:56:54;101604.59;;;22.69;nan
44349;BME280;30068;50.986;4.564;2023-05-01T10:59:19;101608.47;;;22.90;nan
44349;BME280;30068;50.986;4.564;2023-05-01T11:01:45;101613.34;;;22.94;nan
44349;BME280;30068;50.986;4.564;2023-05-01T11:12:06;101613.91;;;23.04;nan
44349;BME280;30068;50.986;4.564;2023-05-01T11:17:43;101605.19;;;22.94;nan
44349;BME280;30068;50.986;4.564;2023-05-01T11:20:01;101607.53;;;22.97;nan
44349;BME280;30068;50.986;4.564;2023-05-01T11:22:26;101608.94;;;23.08;nan
44349;BME280;30068;50.986;4.564;2023-05-01T11:24:52;101610.81;;;23.07;nan
44349;BME280;30068;50.986;4.564;2023-05-01T11:27:17;101598.06;;;22.78;nan
44349;BME280;30068;50.986;4.564;2023-05-01T11:29:43;101596.59;;;22.68;nan
44349;BME280;30068;50.986;4.564;2023-05-01T11:32:08;101599.56;;;22.81;nan
44349;BME280;30068;50.986;4.564;2023-05-01T11:34:34;101598.44;;;22.90;nan
44349;BME280;30068;50.986;4.564;2023-05-01T11:37:01;101602.53;;;22.86;nan
44349;BME280;30068;50.986;4.564;2023-05-01T11:39:27;101588.22;;;22.92;nan
44349;BME280;30068;50.986;4.564;2023-05-01T11:42:04;101595.06;;;22.88;nan
44349;BME280;30068;50.986;4.564;2023-05-01T11:44:30;101589.69;;;23.09;nan
44349;BME280;30068;50.986;4.564;2023-05-01T11:46:55;101581.53;;;22.95;nan
44349;BME280;30068;50.986;4.564;2023-05-01T11:49:27;101592.13;;;22.75;nan
44349;BME280;30068;50.986;4.564;2023-05-01T11:51:58;101590.44;;;22.89;nan
44349;BME280;30068;50.986;4.564;2023-05-01T11:54:24;101587.63;;;22.82;nan
44349;BME280;30068;50.986;4.564;2023-05-01T11:56:56;101588.56;;;22.89;nan
44349;BME280;30068;50.986;4.564;2023-05-01T11:59:21;101581.06;;;22.91;nan
44349;BME280;30068;50.986;4.564;2023-05-01T12:01:47;101584.34;;;23.01;nan
44349;BME280;30068;50.986;4.564;2023-05-01T12:04:15;101590.91;;;23.07;nan
44349;BME280;30068;50.986;4.564;2023-05-01T12:06:47;101588.25;;;23.13;nan
44349;BME280;30068;50.986;4.564;2023-05-01T12:09:22;101575.56;;;23.20;nan
44349;BME280;30068;50.986;4.564;2023-05-01T12:11:48;101579.16;;;23.21;nan
44349;BME280;30068;50.986;4.564;2023-05-01T12:14:15;101580.91;;;23.29;nan
44349;BME280;30068;50.986;4.564;2023-05-01T12:16:40;101574.06;;;23.33;nan
44349;BME280;30068;50.986;4.564;2023-05-01T12:19:06;101577.56;;;23.27;nan
44349;BME280;30068;50.986;4.564;2023-05-01T12:21:32;101574.47;;;23.00;nan
44349;BME280;30068;50.986;4.564;2023-05-01T12:24:10;101582.78;;;22.92;nan
44349;BME280;30068;50.986;4.564;2023-05-01T12:26:36;101569.53;;;22.89;nan
44349;BME280;30068;50.986;4.564;2023-05-01T12:29:03;101577.03;;;22.87;nan
44349;BME280;30068;50.986;4.564;2023-05-01T12:31:29;101573.25;;;23.03;nan
44349;BME280;30068;50.986;4.564;2023-05-01T12:34:02;101570.19;;;22.91;nan
44349;BME280;30068;50.986;4.564;2023-05-01T12:36:28;101569.03;;;23.00;nan
44349;BME280;30068;50.986;4.564;2023-05-01T12:39:08;101567.06;;;23.09;nan
44349;BME280;30068;50.986;4.564;2023-05-01T12:41:38;101574.56;;;23.07;nan
44349;BME280;30068;50.986;4.564;2023-05-01T12:46:41;101574.47;;;23.00;nan
44349;BME280;30068;50.986;4.564;2023-05-01T12:49:07;101567.56;;;22.83;nan
44349;BME280;30068;50.986;4.564;2023-05-01T12:51:32;101572.16;;;22.82;nan
44349;BME280;30068;50.986;4.564;2023-05-01T12:53:57;101576.47;;;22.92;nan
44349;BME280;30068;50.986;4.564;2023-05-01T12:56:23;101571.31;;;22.82;nan
44349;BME280;30068;50.986;4.564;2023-05-01T12:58:50;101576.38;;;22.85;nan
44349;BME280;30068;50.986;4.564;2023-05-01T13:01:22;101568.50;;;22.90;nan
44349;BME280;30068;50.986;4.564;2023-05-01T13:03:48;101579.38;;;23.05;nan
44349;BME280;30068;50.986;4.564;2023-05-01T13:06:14;101586.69;;;23.04;nan
44349;BME280;30068;50.986;4.564;2023-05-01T13:08:39;101577.69;;;23.04;nan
44349;BME280;30068;50.986;4.564;2023-05-01T13:11:14;101574.47;;;23.00;nan
44349;BME280;30068;50.986;4.564;2023-05-01T13:13:40;101582.38;;;22.95;nan
44349;BME280;30068;50.986;4.564;2023-05-01T13:16:07;101587.28;;;22.85;nan
44349;BME280;30068;50.986;4.564;2023-05-01T13:18:38;101581.25;;;22.90;nan
44349;BME280;30068;50.986;4.564;2023-05-01T13:21:07;101584.81;;;22.90;nan
44349;BME280;30068;50.986;4.564;2023-05-01T13:23:33;101581.25;;;23.04;nan
44349;BME280;30068;50.986;4.564;2023-05-01T13:25:59;101582.66;;;23.00;nan
44349;BME280;30068;50.986;4.564;2023-05-01T13:28:24;101581.91;;;23.06;nan
44349;BME280;30068;50.986;4.564;2023-05-01T13:30:50;101585.94;;;23.10;nan
44349;BME280;30068;50.986;4.564;2023-05-01T13:33:16;101587.72;;;23.18;nan
44349;BME280;30068;50.986;4.564;2023-05-01T13:35:41;101588.94;;;23.15;nan
44349;BME280;30068;50.986;4.564;2023-05-01T13:38:08;101594.75;;;23.12;nan
44349;BME280;30068;50.986;4.564;2023-05-01T13:40:35;101590.88;;;23.21;nan
44349;BME280;30068;50.986;4.564;2023-05-01T13:43:01;101593.06;;;23.11;nan
44349;BME280;30068;50.986;4.564;2023-05-01T13:45:26;101596.81;;;23.10;nan
44349;BME280;30068;50.986;4.564;2023-05-01T13:47:52;101600.47;;;23.17;nan
44349;BME280;30068;50.986;4.564;2023-05-01T13:50:19;101604.13;;;23.24;nan
44349;BME280;30068;50.986;4.564;2023-05-01T13:52:44;101602.81;;;23.20;nan
44349;BME280;30068;50.986;4.564;2023-05-01T13:55:10;101595.69;;;23.19;nan
44349;BME280;30068;50.986;4.564;2023-05-01T13:57:38;101599.72;;;23.23;nan
44349;BME280;30068;50.986;4.564;2023-05-01T14:00:06;101590.75;;;23.44;nan
44349;BME280;30068;50.986;4.564;2023-05-01T14:02:32;101596.88;;;23.32;nan
44349;BME280;30068;50.986;4.564;2023-05-01T14:04:58;101595.56;;;23.28;nan
44349;BME280;30068;50.986;4.564;2023-05-01T14:07:23;101610.50;;;23.32;nan
44349;BME280;30068;50.986;4.564;2023-05-01T14:09:53;101600.00;;;23.14;nan
44349;BME280;30068;50.986;4.564;2023-05-01T14:12:21;101604.06;;;23.03;nan
44349;BME280;30068;50.986;4.564;2023-05-01T14:14:48;101595.41;;;23.00;nan
44349;BME280;30068;50.986;4.564;2023-05-01T14:17:13;101602.63;;;23.07;nan
44349;BME280;30068;50.986;4.564;2023-05-01T14:19:38;101598.69;;;23.10;nan
44349;BME280;30068;50.986;4.564;2023-05-01T14:22:07;101599.28;;;23.05;nan
44349;BME280;30068;50.986;4.564;2023-05-01T14:24:34;101592.59;;;23.08;nan
44349;BME280;30068;50.986;4.564;2023-05-01T14:26:59;101592.41;;;23.09;nan
44349;BME280;30068;50.986;4.564;2023-05-01T14:29:26;101590.97;;;23.13;nan
44349;BME280;30068;50.986;4.564;2023-05-01T14:31:52;101593.44;;;23.08;nan
44349;BME280;30068;50.986;4.564;2023-05-01T14:34:19;101598.03;;;23.08;nan
44349;BME280;30068;50.986;4.564;2023-05-01T14:36:44;101600.00;;;23.14;nan
44349;BME280;30068;50.986;4.564;2023-05-01T14:39:10;101601.06;;;23.13;nan
44349;BME280;30068;50.986;4.564;2023-05-01T14:41:37;101596.34;;;23.21;nan
44349;BME280;30068;50.986;4.564;2023-05-01T14:44:04;101600.38;;;23.26;nan
44349;BME280;30068;50.986;4.564;2023-05-01T14:46:33;101596.06;;;23.16;nan
44349;BME280;30068;50.986;4.564;2023-05-01T14:48:59;101596.16;;;23.23;nan
44349;BME280;30068;50.986;4.564;2023-05-01T14:51:25;101604.03;;;23.33;nan
44349;BME280;30068;50.986;4.564;2023-05-01T14:53:51;101601.84;;;23.28;nan
44349;BME280;30068;50.986;4.564;2023-05-01T14:56:16;101603.94;;;23.26;nan
44349;BME280;30068;50.986;4.564;2023-05-01T14:58:41;101608.03;;;23.37;nan
44349;BME280;30068;50.986;4.564;2023-05-01T15:01:07;101600.97;;;23.42;nan
44349;BME280;30068;50.986;4.564;2023-05-01T15:03:32;101602.59;;;23.37;nan
44349;BME280;30068;50.986;4.564;2023-05-01T15:06:00;101608.44;;;23.34;nan
44349;BME280;30068;50.986;4.564;2023-05-01T15:08:25;101608.16;;;23.29;nan
44349;BME280;30068;50.986;4.564;2023-05-01T15:10:50;101604.41;;;23.30;nan
44349;BME280;30068;50.986;4.564;2023-05-01T15:13:16;101616.88;;;23.39;nan
44349;BME280;30068;50.986;4.564;2023-05-01T15:15:42;101612.28;;;23.39;nan
44349;BME280;30068;50.986;4.564;2023-05-01T15:18:07;101614.06;;;23.47;nan
44349;BME280;30068;50.986;4.564;2023-05-01T15:20:32;101620.47;;;23.54;nan
44349;BME280;30068;50.986;4.564;2023-05-01T15:22:58;101620.34;;;23.47;nan
44349;BME280;30068;50.986;4.564;2023-05-01T15:25:23;101611.69;;;23.44;nan
44349;BME280;30068;50.986;4.564;2023-05-01T15:27:48;101618.19;;;23.43;nan
44349;BME280;30068;50.986;4.564;2023-05-01T15:30:14;101617.50;;;23.41;nan
44349;BME280;30068;50.986;4.564;2023-05-01T15:32:39;101632.81;;;23.42;nan
44349;BME280;30068;50.986;4.564;2023-05-01T15:35:05;101632.56;;;23.37;nan
44349;BME280;30068;50.986;4.564;2023-05-01T15:37:30;101631.97;;;23.56;nan
44349;BME280;30068;50.986;4.564;2023-05-01T15:39:55;101636.69;;;23.47;nan
44349;BME280;30068;50.986;4.564;2023-05-01T15:42:21;101632.28;;;23.46;nan
44349;BME280;30068;50.986;4.564;2023-05-01T15:44:46;101634.81;;;23.48;nan
44349;BME280;30068;50.986;4.564;2023-05-01T15:47:12;101641.19;;;23.55;nan
44349;BME280;30068;50.986;4.564;2023-05-01T15:49:37;101639.06;;;23.50;nan
44349;BME280;30068;50.986;4.564;2023-05-01T15:52:02;101633.50;;;23.58;nan
44349;BME280;30068;50.986;4.564;2023-05-01T15:54:28;101631.34;;;23.54;nan
44349;BME280;30068;50.986;4.564;2023-05-01T15:56:53;101638.88;;;23.52;nan
44349;BME280;30068;50.986;4.564;2023-05-01T15:59:18;101645.50;;;23.64;nan
44349;BME280;30068;50.986;4.564;2023-05-01T16:01:43;101646.13;;;23.81;nan
44349;BME280;30068;50.986;4.564;2023-05-01T16:04:09;101638.47;;;23.91;nan
44349;BME280;30068;50.986;4.564;2023-05-01T16:06:34;101654.84;;;23.76;nan
44349;BME280;30068;50.986;4.564;2023-05-01T16:08:59;101653.81;;;23.77;nan
44349;BME280;30068;50.986;4.564;2023-05-01T16:11:25;101657.44;;;23.63;nan
44349;BME280;30068;50.986;4.564;2023-05-01T16:13:51;101666.78;;;23.75;nan
44349;BME280;30068;50.986;4.564;2023-05-01T16:16:18;101668.13;;;23.79;nan
44349;BME280;30068;50.986;4.564;2023-05-01T16:18:46;101673.56;;;23.79;nan
44349;BME280;30068;50.986;4.564;2023-05-01T16:21:12;101674.09;;;23.89;nan
44349;BME280;30068;50.986;4.564;2023-05-01T16:23:39;101674.41;;;23.80;nan
44349;BME280;30068;50.986;4.564;2023-05-01T16:26:05;101676.72;;;23.83;nan
44349;BME280;30068;50.986;4.564;2023-05-01T16:28:34;101668.19;;;23.86;nan
44349;BME280;30068;50.986;4.564;2023-05-01T16:30:59;101675.47;;;24.00;nan
44349;BME280;30068;50.986;4.564;2023-05-01T16:33:25;101677.09;;;23.94;nan
44349;BME280;30068;50.986;4.564;2023-05-01T16:35:50;101684.44;;;23.94;nan
44349;BME280;30068;50.986;4.564;2023-05-01T16:38:16;101686.53;;;23.77;nan
44349;BME280;30068;50.986;4.564;2023-05-01T16:40:41;101694.97;;;23.82;nan
44349;BME280;30068;50.986;4.564;2023-05-01T16:43:07;101693.31;;;23.81;nan
44349;BME280;30068;50.986;4.564;2023-05-01T16:45:32;101695.91;;;23.89;nan
44349;BME280;30068;50.986;4.564;2023-05-01T16:47:58;101692.91;;;23.84;nan
44349;BME280;30068;50.986;4.564;2023-05-01T16:50:23;101698.19;;;23.86;nan
44349;BME280;30068;50.986;4.564;2023-05-01T16:52:49;101696.75;;;23.90;nan
44349;BME280;30068;50.986;4.564;2023-05-01T16:55:15;101699.81;;;24.01;nan
44349;BME280;30068;50.986;4.564;2023-05-01T16:57:41;101696.03;;;24.02;nan
44349;BME280;30068;50.986;4.564;2023-05-01T17:00:06;101698.91;;;23.94;nan
44349;BME280;30068;50.986;4.564;2023-05-01T17:02:36;101698.31;;;23.99;nan
44349;BME280;30068;50.986;4.564;2023-05-01T17:05:01;101700.63;;;24.02;nan
44349;BME280;30068;50.986;4.564;2023-05-01T17:07:27;101701.91;;;23.99;nan
44349;BME280;30068;50.986;4.564;2023-05-01T17:09:52;101692.41;;;23.95;nan
44349;BME280;30068;50.986;4.564;2023-05-01T17:12:17;101696.38;;;23.93;nan
44349;BME280;30068;50.986;4.564;2023-05-01T17:14:42;101702.25;;;23.96;nan
44349;BME280;30068;50.986;4.564;2023-05-01T17:17:08;101707.09;;;23.94;nan
44349;BME280;30068;50.986;4.564;2023-05-01T17:19:33;101708.56;;;23.97;nan
44349;BME280;30068;50.986;4.564;2023-05-01T17:21:58;101702.25;;;23.96;nan
44349;BME280;30068;50.986;4.564;2023-05-01T17:24:24;101715.28;;;23.94;nan
44349;BME280;30068;50.986;4.564;2023-05-01T17:26:49;101716.31;;;23.93;nan
44349;BME280;30068;50.986;4.564;2023-05-01T17:29:14;101713.38;;;23.95;nan
44349;BME280;30068;50.986;4.564;2023-05-01T17:31:40;101726.16;;;23.94;nan
44349;BME280;30068;50.986;4.564;2023-05-01T17:34:05;101726.28;;;23.86;nan
44349;BME280;30068;50.986;4.564;2023-05-01T17:36:30;101727.38;;;23.92;nan
44349;BME280;30068;50.986;4.564;2023-05-01T17:38:56;101731.81;;;23.93;nan
44349;BME280;30068;50.986;4.564;2023-05-01T17:41:21;101730.72;;;23.87;nan
44349;BME280;30068;50.986;4.564;2023-05-01T17:43:47;101741.31;;;23.82;nan
44349;BME280;30068;50.986;4.564;2023-05-01T17:46:12;101743.00;;;23.83;nan
44349;BME280;30068;50.986;4.564;2023-05-01T17:48:38;101739.50;;;23.89;nan
44349;BME280;30068;50.986;4.564;2023-05-01T17:51:03;101741.22;;;23.90;nan
44349;BME280;30068;50.986;4.564;2023-05-01T17:53:28;101750.41;;;23.89;nan
44349;BME280;30068;50.986;4.564;2023-05-01T17:55:53;101748.34;;;23.91;nan
44349;BME280;30068;50.986;4.564;2023-05-01T17:58:19;101758.81;;;23.88;nan
44349;BME280;30068;50.986;4.564;2023-05-01T18:00:45;101750.81;;;23.86;nan
44349;BME280;30068;50.986;4.564;2023-05-01T18:03:10;101758.81;;;23.88;nan
44349;BME280;30068;50.986;4.564;2023-05-01T18:05:35;101756.72;;;23.90;nan
44349;BME280;30068;50.986;4.564;2023-05-01T18:08:00;101756.72;;;23.90;nan
44349;BME280;30068;50.986;4.564;2023-05-01T18:10:26;101764.44;;;23.86;nan
44349;BME280;30068;50.986;4.564;2023-05-01T18:12:55;101766.31;;;23.86;nan
44349;BME280;30068;50.986;4.564;2023-05-01T18:15:20;101769.06;;;23.86;nan
44349;BME280;30068;50.986;4.564;2023-05-01T18:17:45;101775.53;;;23.85;nan
44349;BME280;30068;50.986;4.564;2023-05-01T18:20:10;101781.84;;;23.85;nan
44349;BME280;30068;50.986;4.564;2023-05-01T18:22:36;101781.16;;;23.83;nan
44349;BME280;30068;50.986;4.564;2023-05-01T18:25:01;101785.59;;;23.84;nan
44349;BME280;30068;50.986;4.564;2023-05-01T18:27:27;101783.25;;;23.81;nan
44349;BME280;30068;50.986;4.564;2023-05-01T18:29:52;101795.56;;;23.77;nan
44349;BME280;30068;50.986;4.564;2023-05-01T18:32:18;101798.09;;;23.79;nan
44349;BME280;30068;50.986;4.564;2023-05-01T18:34:43;101801.84;;;23.78;nan
44349;BME280;30068;50.986;4.564;2023-05-01T18:37:09;101800.84;;;23.79;nan
44349;BME280;30068;50.986;4.564;2023-05-01T18:39:35;101805.44;;;23.78;nan
44349;BME280;30068;50.986;4.564;2023-05-01T18:42:00;101813.13;;;23.75;nan
44349;BME280;30068;50.986;4.564;2023-05-01T18:44:27;101805.81;;;23.75;nan
44349;BME280;30068;50.986;4.564;2023-05-01T18:46:52;101802.22;;;23.75;nan
44349;BME280;30068;50.986;4.564;2023-05-01T18:49:18;101804.94;;;23.75;nan
44349;BME280;30068;50.986;4.564;2023-05-01T18:51:48;101806.84;;;23.74;nan
44349;BME280;30068;50.986;4.564;2023-05-01T18:54:14;101811.47;;;23.74;nan
44349;BME280;30068;50.986;4.564;2023-05-01T18:56:40;101808.53;;;23.75;nan
44349;BME280;30068;50.986;4.564;2023-05-01T18:59:05;101829.03;;;23.71;nan
44349;BME280;30068;50.986;4.564;2023-05-01T19:01:30;101819.81;;;23.72;nan
44349;BME280;30068;50.986;4.564;2023-05-01T19:03:56;101821.53;;;23.73;nan
44349;BME280;30068;50.986;4.564;2023-05-01T19:06:24;101833.63;;;23.71;nan
44349;BME280;30068;50.986;4.564;2023-05-01T19:08:49;101825.72;;;23.61;nan
44349;BME280;30068;50.986;4.564;2023-05-01T19:11:14;101828.75;;;23.66;nan
44349;BME280;30068;50.986;4.564;2023-05-01T19:13:39;101832.78;;;23.70;nan
44349;BME280;30068;50.986;4.564;2023-05-01T19:16:05;101834.03;;;23.68;nan
44349;BME280;30068;50.986;4.564;2023-05-01T19:18:30;101845.94;;;23.67;nan
44349;BME280;30068;50.986;4.564;2023-05-01T19:20:57;101847.44;;;23.69;nan
44349;BME280;30068;50.986;4.564;2023-05-01T19:23:22;101851.94;;;23.62;nan
44349;BME280;30068;50.986;4.564;2023-05-01T19:25:47;101861.63;;;23.65;nan
44349;BME280;30068;50.986;4.564;2023-05-01T19:28:12;101851.59;;;23.65;nan
44349;BME280;30068;50.986;4.564;2023-05-01T19:30:38;101856.00;;;23.66;nan
44349;BME280;30068;50.986;4.564;2023-05-01T19:33:03;101860.78;;;23.64;nan
44349;BME280;30068;50.986;4.564;2023-05-01T19:35:28;101865.38;;;23.63;nan
44349;BME280;30068;50.986;4.564;2023-05-01T19:37:54;101867.44;;;23.61;nan
44349;BME280;30068;50.986;4.564;2023-05-01T19:40:20;101868.28;;;23.62;nan
44349;BME280;30068;50.986;4.564;2023-05-01T19:42:45;101883.63;;;23.63;nan
44349;BME280;30068;50.986;4.564;2023-05-01T19:45:10;101888.22;;;23.62;nan
44349;BME280;30068;50.986;4.564;2023-05-01T19:47:35;101887.38;;;23.62;nan
44349;BME280;30068;50.986;4.564;2023-05-01T19:50:00;101891.78;;;23.63;nan
44349;BME280;30068;50.986;4.564;2023-05-01T19:52:26;101899.31;;;23.61;nan
44349;BME280;30068;50.986;4.564;2023-05-01T19:54:51;101910.41;;;23.59;nan
44349;BME280;30068;50.986;4.564;2023-05-01T19:57:16;101906.44;;;23.62;nan
44349;BME280;30068;50.986;4.564;2023-05-01T19:59:41;101911.44;;;23.58;nan
44349;BME280;30068;50.986;4.564;2023-05-01T20:02:07;101922.16;;;23.60;nan
44349;BME280;30068;50.986;4.564;2023-05-01T20:04:32;101920.47;;;23.59;nan
44349;BME280;30068;50.986;4.564;2023-05-01T20:06:57;101919.78;;;23.57;nan
44349;BME280;30068;50.986;4.564;2023-05-01T20:09:23;101925.25;;;23.57;nan
44349;BME280;30068;50.986;4.564;2023-05-01T20:11:49;101923.53;;;23.56;nan
44349;BME280;30068;50.986;4.564;2023-05-01T20:14:15;101928.16;;;23.55;nan
44349;BME280;30068;50.986;4.564;2023-05-01T20:16:40;101926.28;;;23.56;nan
44349;BME280;30068;50.986;4.564;2023-05-01T20:19:05;101931.53;;;23.57;nan
44349;BME280;30068;50.986;4.564;2023-05-01T20:21:30;101933.59;;;23.55;nan
44349;BME280;30068;50.986;4.564;2023-05-01T20:23:56;101933.13;;;23.52;nan
44349;BME280;30068;50.986;4.564;2023-05-01T20:26:22;101941.13;;;23.53;nan
44349;BME280;30068;50.986;4.564;2023-05-01T20:28:47;101936.88;;;23.51;nan
44349;BME280;30068;50.986;4.564;2023-05-01T20:31:13;101944.03;;;23.52;nan
44349;BME280;30068;50.986;4.564;2023-05-01T20:33:38;101950.50;;;23.51;nan
44349;BME280;30068;50.986;4.564;2023-05-01T20:36:04;101948.13;;;23.48;nan
44349;BME280;30068;50.986;4.564;2023-05-01T20:38:29;101949.84;;;23.49;nan
44349;BME280;30068;50.986;4.564;2023-05-01T20:40:55;101945.41;;;23.48;nan
44349;BME280;30068;50.986;4.564;2023-05-01T20:43:20;101948.97;;;23.48;nan
44349;BME280;30068;50.986;4.564;2023-05-01T20:45:46;101955.81;;;23.44;nan
44349;BME280;30068;50.986;4.564;2023-05-01T20:48:11;101956.66;;;23.45;nan
44349;BME280;30068;50.986;4.564;2023-05-01T20:50:36;101953.09;;;23.44;nan
44349;BME280;30068;50.986;4.564;2023-05-01T20:53:01;101956.84;;;23.43;nan
44349;BME280;30068;50.986;4.564;2023-05-01T20:55:27;101958.72;;;23.43;nan
44349;BME280;30068;50.986;4.564;2023-05-01T20:57:53;101953.25;;;23.43;nan
44349;BME280;30068;50.986;4.564;2023-05-01T21:00:19;101954.28;;;23.42;nan
44349;BME280;30068;50.986;4.564;2023-05-01T21:02:44;101957.22;;;23.40;nan
44349;BME280;30068;50.986;4.564;2023-05-01T21:05:09;101963.88;;;23.38;nan
44349;BME280;30068;50.986;4.564;2023-05-01T21:07:35;101966.59;;;23.38;nan
44349;BME280;30068;50.986;4.564;2023-05-01T21:10:03;101979.84;;;23.41;nan
44349;BME280;30068;50.986;4.564;2023-05-01T21:12:28;101971.66;;;23.41;nan
44349;BME280;30068;50.986;4.564;2023-05-01T21:14:54;101980.22;;;23.38;nan
44349;BME280;30068;50.986;4.564;2023-05-01T21:17:19;101977.50;;;23.38;nan
44349;BME280;30068;50.986;4.564;2023-05-01T21:19:45;101982.09;;;23.37;nan
44349;BME280;30068;50.986;4.564;2023-05-01T21:22:14;101984.81;;;23.37;nan
44349;BME280;30068;50.986;4.564;2023-05-01T21:24:41;101984.81;;;23.37;nan
44349;BME280;30068;50.986;4.564;2023-05-01T21:27:07;101981.41;;;23.35;nan
44349;BME280;30068;50.986;4.564;2023-05-01T21:29:32;101986.84;;;23.35;nan
44349;BME280;30068;50.986;4.564;2023-05-01T21:31:59;101992.13;;;23.37;nan
44349;BME280;30068;50.986;4.564;2023-05-01T21:34:25;101984.34;;;23.34;nan
44349;BME280;30068;50.986;4.564;2023-05-01T21:36:50;101985.38;;;23.33;nan
44349;BME280;30068;50.986;4.564;2023-05-01T21:39:15;101981.78;;;23.32;nan
44349;BME280;30068;50.986;4.564;2023-05-01T21:41:41;101991.84;;;23.32;nan
44349;BME280;30068;50.986;4.564;2023-05-01T21:44:06;101989.78;;;23.34;nan
44349;BME280;30068;50.986;4.564;2023-05-01T21:46:31;101981.78;;;23.32;nan
44349;BME280;30068;50.986;4.564;2023-05-01T21:48:59;101988.44;;;23.30;nan
44349;BME280;30068;50.986;4.564;2023-05-01T21:51:25;101991.84;;;23.32;nan
44349;BME280;30068;50.986;4.564;2023-05-01T21:53:53;101991.84;;;23.32;nan
44349;BME280;30068;50.986;4.564;2023-05-01T21:56:22;101984.69;;;23.31;nan
44349;BME280;30068;50.986;4.564;2023-05-01T21:58:48;101989.28;;;23.30;nan
44349;BME280;30068;50.986;4.564;2023-05-01T22:01:14;101997.81;;;23.27;nan
44349;BME280;30068;50.986;4.564;2023-05-01T22:03:40;102003.47;;;23.26;nan
44349;BME280;30068;50.986;4.564;2023-05-01T22:06:06;102013.50;;;23.25;nan
44349;BME280;30068;50.986;4.564;2023-05-01T22:08:31;102007.22;;;23.24;nan
44349;BME280;30068;50.986;4.564;2023-05-01T22:10:56;102015.38;;;23.24;nan
44349;BME280;30068;50.986;4.564;2023-05-01T22:13:22;102029.00;;;23.24;nan
44349;BME280;30068;50.986;4.564;2023-05-01T22:15:47;102026.81;;;23.20;nan
44349;BME280;30068;50.986;4.564;2023-05-01T22:18:13;102032.06;;;23.21;nan
44349;BME280;30068;50.986;4.564;2023-05-01T22:20:43;102033.09;;;23.20;nan
44349;BME280;30068;50.986;4.564;2023-05-01T22:23:08;102036.88;;;23.19;nan
44349;BME280;30068;50.986;4.564;2023-05-01T22:25:33;102043.16;;;23.20;nan
44349;BME280;30068;50.986;4.564;2023-05-01T22:27:58;102039.75;;;23.18;nan
44349;BME280;30068;50.986;4.564;2023-05-01T22:30:25;102030.91;;;23.16;nan
44349;BME280;30068;50.986;4.564;2023-05-01T22:32:51;102031.75;;;23.16;nan
44349;BME280;30068;50.986;4.564;2023-05-01T22:35:16;102033.16;;;23.12;nan
44349;BME280;30068;50.986;4.564;2023-05-01T22:37:41;102024.16;;;23.12;nan
44349;BME280;30068;50.986;4.564;2023-05-01T22:40:06;102025.84;;;23.13;nan
44349;BME280;30068;50.986;4.564;2023-05-01T22:42:32;102041.00;;;23.07;nan
44349;BME280;30068;50.986;4.564;2023-05-01T22:44:57;102036.06;;;23.11;nan
44349;BME280;30068;50.986;4.564;2023-05-01T22:47:22;102036.22;;;23.09;nan
44349;BME280;30068;50.986;4.564;2023-05-01T22:49:47;102040.66;;;23.10;nan
44349;BME280;30068;50.986;4.564;2023-05-01T22:52:13;102041.69;;;23.09;nan
44349;BME280;30068;50.986;4.564;2023-05-01T22:54:38;102038.78;;;23.11;nan
44349;BME280;30068;50.986;4.564;2023-05-01T22:57:04;102052.94;;;23.06;nan
44349;BME280;30068;50.986;4.564;2023-05-01T22:59:29;102056.34;;;23.00;nan
44349;BME280;30068;50.986;4.564;2023-05-01T23:01:55;102065.50;;;23.07;nan
44349;BME280;30068;50.986;4.564;2023-05-01T23:04:21;102069.44;;;23.05;nan
44349;BME280;30068;50.986;4.564;2023-05-01T23:06:46;102069.44;;;23.05;nan
44349;BME280;30068;50.986;4.564;2023-05-01T23:09:12;102068.28;;;22.99;nan
44349;BME280;30068;50.986;4.564;2023-05-01T23:11:37;102072.19;;;23.05;nan